aviador You're here:

LFOH Decoded Metar

LE HAVRE in FRANCE
Report Time2018-06-17 23:00:00
UTC Time2018-06-17 23:35:07
Flight Rules mvfr MVFR
Wind210° at 10 kt
W.Decomp.*RWY 22: 9.9 kt HW 1.6 kt LCW
W.Rank210° ranks 1
Current wind is below 210° avg. (10.1)
Visibility9999 m
Phenomena:N/A
Clouds:Overcast 014 Hf
Expected CloudBase > 1,200 ft AGL from Temp-Dew spread
Ceiling1,400 ft
Temp16°C (ISA +2)
Dew Point13°C (83% RH)
AAT13.4°C
QNH1020 hPa
Density Alt502 ft
Elevation338 ft
Report Wrong Elevation
Raw Report
LFOH 172300Z AUTO 21010KT 9999 OVC014 16/13 Q1020=

Extra information for LFOH:More info

Metar Taf Metar & Taf Last 4 Metars F.Rules Stats Wind Profile Meteogram Temp Stats Airport Information Weather charts Add Link Nearby VenuesMetar ALERT Operation Metar Decoded Social comments